Time;durP1;ratioP1;P1;durP2;ratioP2;P2;SDS_P1;SDS_P2;PMS_P1;PMS_P2;Temp;Humidity;BMP_temperature;BMP_pressure;BME280_temperature;BME280_humidity;BME280_pressure;Samples;Min_cycle;Max_cycle;Signal;HPM_P1;HPM_P2
2024/02/09 00:02:23;;;;;;;3.10;3.00;;;;;;;;;;5116181;28;20477;-65
2024/02/09 00:04:49;;;;;;;0.60;0.60;;;;;;;;;;5117893;28;20472;-66
2024/02/09 00:07:15;;;;;;;0.50;0.50;;;;;;;;;;5102201;27;20468;-66
2024/02/09 00:09:42;;;;;;;0.60;0.60;;;;;;;;;;5117082;27;20498;-68
2024/02/09 00:12:09;;;;;;;2.57;2.40;;;;;;;;;;5129974;27;20434;-66
2024/02/09 00:14:42;;;;;;;0.40;0.40;;;;;;;;;;5122075;27;20463;-67
2024/02/09 00:17:09;;;;;;;0.50;0.50;;;;;;;;;;5125463;27;20443;-67
2024/02/09 00:19:37;;;;;;;0.50;0.50;;;;;;;;;;5115326;27;20517;-68
2024/02/09 00:22:04;;;;;;;0.50;0.50;;;;;;;;;;5114636;28;20457;-66
2024/02/09 00:24:31;;;;;;;0.50;0.50;;;;;;;;;;5117579;27;20853;-62
2024/02/09 00:26:59;;;;;;;0.50;0.50;;;;;;;;;;5125912;27;20521;-68
2024/02/09 00:29:26;;;;;;;1.57;1.57;;;;;;;;;;5124532;27;20454;-68
2024/02/09 00:31:53;;;;;;;0.87;0.87;;;;;;;;;;5123657;27;20472;-66
2024/02/09 00:34:20;;;;;;;0.40;0.40;;;;;;;;;;5120587;27;20494;-67
2024/02/09 00:36:47;;;;;;;0.53;0.53;;;;;;;;;;5110004;27;20480;-66
2024/02/09 00:39:14;;;;;;;0.50;0.50;;;;;;;;;;5116718;27;20894;-69
2024/02/09 00:41:40;;;;;;;0.40;0.40;;;;;;;;;;5110809;27;20962;-66
2024/02/09 00:44:06;;;;;;;0.43;0.43;;;;;;;;;;5135865;27;20515;-66
2024/02/09 00:46:33;;;;;;;0.80;0.80;;;;;;;;;;5117329;27;20449;-66
2024/02/09 00:49:03;;;;;;;0.60;0.60;;;;;;;;;;5118941;27;20546;-67
2024/02/09 00:51:29;;;;;;;0.50;0.50;;;;;;;;;;5115143;27;20482;-68
2024/02/09 00:53:56;;;;;;;0.50;0.50;;;;;;;;;;5122469;27;20498;-66
2024/02/09 00:56:23;;;;;;;0.50;0.50;;;;;;;;;;5125925;27;20995;-66
2024/02/09 00:58:50;;;;;;;0.40;0.40;;;;;;;;;;5121695;27;20867;-68
2024/02/09 01:01:16;;;;;;;0.60;0.60;;;;;;;;;;5122026;27;20513;-67
2024/02/09 01:03:42;;;;;;;0.50;0.50;;;;;;;;;;5115217;27;20490;-67
2024/02/09 01:06:10;;;;;;;2.30;2.20;;;;;;;;;;5123525;27;20485;-67
2024/02/09 01:08:37;;;;;;;0.40;0.40;;;;;;;;;;5113483;27;20702;-68
2024/02/09 01:11:05;;;;;;;0.50;0.50;;;;;;;;;;5109026;27;20441;-65
2024/02/09 02:46:14;;;;;;;0.50;0.50;;;;;;;;;;5105144;28;20205;-65
2024/02/09 03:05:24;;;;;;;0.40;0.40;;;;;;;;;;5101663;28;20442;-66
2024/02/09 03:07:52;;;;;;;0.30;0.30;;;;;;;;;;5124926;27;20450;-66
2024/02/09 03:10:19;;;;;;;0.40;0.40;;;;;;;;;;5117706;27;20933;-68
2024/02/09 03:12:46;;;;;;;0.30;0.20;;;;;;;;;;5108351;27;20498;-67
2024/02/09 03:15:15;;;;;;;0.30;0.30;;;;;;;;;;5117795;27;20460;-66
2024/02/09 03:17:41;;;;;;;0.97;0.93;;;;;;;;;;5106474;27;20455;-67
2024/02/09 03:20:08;;;;;;;0.30;0.30;;;;;;;;;;5109275;27;20537;-66
2024/02/09 03:22:35;;;;;;;0.30;0.27;;;;;;;;;;5107450;27;20439;-68
2024/02/09 03:25:03;;;;;;;0.30;0.20;;;;;;;;;;5106368;28;20477;-68
2024/02/09 03:27:31;;;;;;;0.30;0.30;;;;;;;;;;5106514;27;20474;-66
2024/02/09 03:29:59;;;;;;;0.30;0.30;;;;;;;;;;5106457;28;20457;-66
2024/02/09 03:32:27;;;;;;;0.30;0.30;;;;;;;;;;5100806;28;20880;-68
2024/02/09 03:34:53;;;;;;;0.30;0.30;;;;;;;;;;5104438;28;20495;-67
2024/02/09 03:37:24;;;;;;;0.30;0.30;;;;;;;;;;5105687;28;20492;-66
2024/02/09 03:39:51;;;;;;;0.30;0.30;;;;;;;;;;5110748;28;20483;-67
2024/02/09 03:42:21;;;;;;;0.30;0.30;;;;;;;;;;5123093;27;20481;-66
2024/02/09 03:44:48;;;;;;;1.33;1.33;;;;;;;;;;5120444;27;21191;-68
2024/02/09 03:47:14;;;;;;;0.40;0.40;;;;;;;;;;5118835;27;20449;-67
2024/02/09 03:49:42;;;;;;;0.30;0.30;;;;;;;;;;5119068;27;20537;-68
2024/02/09 03:52:09;;;;;;;0.30;0.30;;;;;;;;;;5122169;27;20438;-67
2024/02/09 03:54:35;;;;;;;0.40;0.40;;;;;;;;;;5110563;27;20461;-66
2024/02/09 03:57:02;;;;;;;0.33;0.33;;;;;;;;;;5119397;27;20564;-66
2024/02/09 03:59:30;;;;;;;0.40;0.40;;;;;;;;;;5107585;27;21038;-68
2024/02/09 04:01:59;;;;;;;0.97;0.97;;;;;;;;;;5111595;27;20481;-68
2024/02/09 04:04:26;;;;;;;8.07;7.53;;;;;;;;;;5118456;27;20477;-67
2024/02/09 04:06:54;;;;;;;0.40;0.40;;;;;;;;;;5121359;27;20486;-66
2024/02/09 04:09:20;;;;;;;0.40;0.40;;;;;;;;;;5115186;27;20482;-68
2024/02/09 04:11:47;;;;;;;0.40;0.40;;;;;;;;;;5123699;27;20484;-68
2024/02/09 04:14:15;;;;;;;0.40;0.40;;;;;;;;;;5116348;27;20494;-68
2024/02/09 04:16:42;;;;;;;0.40;0.40;;;;;;;;;;5111204;27;20470;-68
2024/02/09 04:19:08;;;;;;;0.50;0.50;;;;;;;;;;5126636;27;20912;-67
2024/02/09 04:21:46;;;;;;;0.40;0.40;;;;;;;;;;5123981;27;20969;-68
2024/02/09 04:24:15;;;;;;;0.40;0.40;;;;;;;;;;5123536;27;20450;-67
2024/02/09 04:26:44;;;;;;;0.50;0.50;;;;;;;;;;5123662;27;20973;-68
2024/02/09 04:29:10;;;;;;;0.40;0.40;;;;;;;;;;5114632;27;20525;-66
2024/02/09 04:31:39;;;;;;;0.30;0.30;;;;;;;;;;5113169;28;20478;-68
2024/02/09 04:34:05;;;;;;;0.40;0.40;;;;;;;;;;5108813;28;20971;-67
2024/02/09 04:36:33;;;;;;;0.40;0.40;;;;;;;;;;5118679;28;20477;-68
2024/02/09 04:39:00;;;;;;;0.40;0.40;;;;;;;;;;5104826;27;20485;-67
2024/02/09 04:41:28;;;;;;;0.40;0.40;;;;;;;;;;5121126;27;20513;-66
2024/02/09 04:43:54;;;;;;;0.40;0.40;;;;;;;;;;5112998;27;20472;-67
2024/02/09 04:46:22;;;;;;;0.40;0.40;;;;;;;;;;5113376;27;20505;-67
2024/02/09 04:48:49;;;;;;;0.40;0.40;;;;;;;;;;5111571;27;20540;-67
2024/02/09 04:51:15;;;;;;;2.93;2.77;;;;;;;;;;5128251;27;20919;-68
2024/02/09 04:53:41;;;;;;;0.40;0.40;;;;;;;;;;5118283;27;20983;-68
2024/02/09 04:56:09;;;;;;;0.50;0.50;;;;;;;;;;5122683;27;20978;-65
2024/02/09 04:58:37;;;;;;;0.30;0.30;;;;;;;;;;5111847;27;20454;-67
2024/02/09 05:01:06;;;;;;;0.40;0.40;;;;;;;;;;5109782;27;20497;-67
2024/02/09 05:03:33;;;;;;;0.40;0.40;;;;;;;;;;5100932;28;20454;-65
2024/02/09 05:05:59;;;;;;;0.40;0.40;;;;;;;;;;5115363;27;20490;-67
2024/02/09 05:08:26;;;;;;;0.40;0.40;;;;;;;;;;5106557;28;20486;-67
2024/02/09 05:10:52;;;;;;;11.10;10.40;;;;;;;;;;5118697;27;20488;-67
2024/02/09 05:13:19;;;;;;;0.50;0.50;;;;;;;;;;5108150;28;20461;-66
2024/02/09 05:15:47;;;;;;;0.50;0.50;;;;;;;;;;5105053;28;20451;-68
2024/02/09 05:18:14;;;;;;;0.40;0.40;;;;;;;;;;5109325;28;20532;-66
2024/02/09 05:20:40;;;;;;;65.60;11.23;;;;;;;;;;5115476;28;20487;-66
2024/02/09 05:23:07;;;;;;;0.50;0.50;;;;;;;;;;5107830;28;21125;-67
2024/02/09 05:25:33;;;;;;;0.50;0.50;;;;;;;;;;5115025;27;21160;-64
2024/02/09 05:28:00;;;;;;;0.60;0.60;;;;;;;;;;5113816;28;20947;-66
2024/02/09 05:30:29;;;;;;;0.40;0.40;;;;;;;;;;5113780;27;20474;-66
2024/02/09 05:32:57;;;;;;;0.40;0.40;;;;;;;;;;5111760;28;20996;-63
2024/02/09 05:35:23;;;;;;;0.60;0.60;;;;;;;;;;5109918;28;20466;-68
2024/02/09 05:37:50;;;;;;;0.60;0.60;;;;;;;;;;5108195;28;20484;-67
2024/02/09 05:40:17;;;;;;;2.57;2.47;;;;;;;;;;5113982;27;20503;-66
2024/02/09 05:42:43;;;;;;;0.53;0.53;;;;;;;;;;5115961;28;20477;-65
2024/02/09 05:45:10;;;;;;;0.47;0.47;;;;;;;;;;5112888;27;20482;-67
2024/02/09 05:47:37;;;;;;;0.70;0.70;;;;;;;;;;5119293;27;20486;-67
2024/02/09 05:50:05;;;;;;;0.50;0.50;;;;;;;;;;5119084;27;20474;-67
2024/02/09 05:52:32;;;;;;;0.60;0.60;;;;;;;;;;5105180;27;20603;-67
2024/02/09 05:54:58;;;;;;;0.50;0.50;;;;;;;;;;5108478;28;20472;-66
2024/02/09 05:57:26;;;;;;;0.53;0.53;;;;;;;;;;5107920;28;20487;-65
2024/02/09 05:59:53;;;;;;;1.90;1.80;;;;;;;;;;5117072;28;20477;-67
2024/02/09 06:02:19;;;;;;;0.60;0.60;;;;;;;;;;5112684;28;20795;-66
2024/02/09 06:04:46;;;;;;;0.60;0.60;;;;;;;;;;5104979;28;20474;-69
2024/02/09 06:07:13;;;;;;;0.80;0.80;;;;;;;;;;5108309;28;20482;-65
2024/02/09 06:09:40;;;;;;;0.50;0.50;;;;;;;;;;5113672;27;20485;-67
2024/02/09 06:12:07;;;;;;;0.67;0.67;;;;;;;;;;5113958;27;20443;-68
2024/02/09 06:14:33;;;;;;;0.80;0.80;;;;;;;;;;5108943;27;20446;-70
2024/02/09 06:17:00;;;;;;;0.50;0.50;;;;;;;;;;5112840;27;20464;-70
2024/02/09 06:19:26;;;;;;;0.70;0.70;;;;;;;;;;5120241;27;20470;-69
2024/02/09 06:21:53;;;;;;;0.40;0.40;;;;;;;;;;5101536;28;20499;-66
2024/02/09 06:24:24;;;;;;;0.50;0.50;;;;;;;;;;5112987;27;20481;-65
2024/02/09 06:26:50;;;;;;;0.60;0.60;;;;;;;;;;5109999;28;20966;-68
2024/02/09 06:29:17;;;;;;;0.50;0.50;;;;;;;;;;5105388;28;20545;-68
2024/02/09 06:31:43;;;;;;;0.50;0.50;;;;;;;;;;5110613;28;20462;-69
2024/02/09 06:34:10;;;;;;;0.50;0.50;;;;;;;;;;5104386;28;20450;-68
2024/02/09 06:36:36;;;;;;;0.60;0.60;;;;;;;;;;5106179;28;20494;-69
2024/02/09 06:39:03;;;;;;;0.70;0.70;;;;;;;;;;5106521;28;20519;-67
2024/02/09 06:41:34;;;;;;;0.50;0.50;;;;;;;;;;5104813;28;20497;-69
2024/02/09 06:44:00;;;;;;;0.67;0.67;;;;;;;;;;5105241;28;20453;-69
2024/02/09 06:46:27;;;;;;;0.50;0.50;;;;;;;;;;5106806;28;20490;-68
2024/02/09 06:48:56;;;;;;;0.50;0.50;;;;;;;;;;5107454;28;21018;-68
2024/02/09 06:51:23;;;;;;;0.80;0.80;;;;;;;;;;5112488;28;20926;-68
2024/02/09 06:53:50;;;;;;;0.53;0.53;;;;;;;;;;5099617;28;20489;-69
2024/02/09 06:56:16;;;;;;;0.50;0.50;;;;;;;;;;5107140;28;20514;-69
2024/02/09 06:58:45;;;;;;;0.60;0.60;;;;;;;;;;5100956;28;20927;-68
2024/02/09 07:01:12;;;;;;;0.60;0.60;;;;;;;;;;5106283;28;20679;-67
2024/02/09 07:03:38;;;;;;;0.80;0.80;;;;;;;;;;5099567;28;20492;-68
2024/02/09 07:06:07;;;;;;;0.60;0.60;;;;;;;;;;5093443;28;20523;-69
2024/02/09 07:08:39;;;;;;;0.70;0.70;;;;;;;;;;5108736;28;20454;-68
2024/02/09 07:11:07;;;;;;;0.60;0.60;;;;;;;;;;5102473;28;20447;-68
2024/02/09 07:13:34;;;;;;;1.20;1.20;;;;;;;;;;5112293;28;20545;-67
2024/02/09 07:16:03;;;;;;;0.80;0.80;;;;;;;;;;5112032;28;20454;-66
2024/02/09 07:18:29;;;;;;;0.70;0.70;;;;;;;;;;5107175;28;20515;-68
2024/02/09 07:20:56;;;;;;;5.87;5.40;;;;;;;;;;5108176;28;20443;-67
2024/02/09 07:23:22;;;;;;;0.80;0.80;;;;;;;;;;5110456;28;20478;-67
2024/02/09 07:25:49;;;;;;;0.70;0.70;;;;;;;;;;5106764;28;20466;-68
2024/02/09 07:28:15;;;;;;;0.80;0.80;;;;;;;;;;5115089;28;21024;-66
2024/02/09 07:30:42;;;;;;;0.70;0.70;;;;;;;;;;5103058;28;20490;-70
2024/02/09 07:33:10;;;;;;;0.80;0.80;;;;;;;;;;5111541;28;20478;-71
2024/02/09 07:35:37;;;;;;;0.60;0.60;;;;;;;;;;5112154;28;20476;-71
2024/02/09 07:38:03;;;;;;;0.70;0.70;;;;;;;;;;5110956;28;20465;-71
2024/02/09 07:40:29;;;;;;;0.70;0.70;;;;;;;;;;5110337;28;20483;-72
2024/02/09 07:42:56;;;;;;;0.77;0.77;;;;;;;;;;5106805;28;20488;-72
2024/02/09 07:45:22;;;;;;;0.70;0.70;;;;;;;;;;5117875;28;20446;-72
2024/02/09 07:47:49;;;;;;;0.80;0.80;;;;;;;;;;5103076;28;20497;-71
2024/02/09 07:50:17;;;;;;;0.70;0.70;;;;;;;;;;5100394;28;20465;-71
2024/02/09 07:52:44;;;;;;;0.73;0.73;;;;;;;;;;5104576;28;20474;-72
2024/02/09 07:55:13;;;;;;;0.87;0.87;;;;;;;;;;5099986;28;20516;-67
2024/02/09 07:57:40;;;;;;;0.90;0.90;;;;;;;;;;5113987;28;20517;-67
2024/02/09 08:00:08;;;;;;;0.80;0.80;;;;;;;;;;5108150;28;20462;-69
2024/02/09 08:02:40;;;;;;;0.90;0.90;;;;;;;;;;5110346;28;20539;-70
2024/02/09 08:05:07;;;;;;;1.17;1.17;;;;;;;;;;5106548;28;20460;-69
2024/02/09 08:07:36;;;;;;;1.10;1.10;;;;;;;;;;5108988;28;20542;-70
2024/02/09 08:10:02;;;;;;;1.00;1.00;;;;;;;;;;5102268;28;20488;-71
2024/02/09 08:12:29;;;;;;;0.90;0.90;;;;;;;;;;5102069;28;20469;-71
2024/02/09 08:14:56;;;;;;;1.10;1.10;;;;;;;;;;5114238;28;20446;-71
2024/02/09 08:17:22;;;;;;;1.27;1.27;;;;;;;;;;5108043;28;20503;-69
2024/02/09 08:19:51;;;;;;;1.20;1.20;;;;;;;;;;5105869;28;20804;-68
2024/02/09 08:22:22;;;;;;;1.07;1.07;;;;;;;;;;5105655;28;21166;-69
2024/02/09 08:24:50;;;;;;;1.30;1.30;;;;;;;;;;5111305;28;20506;-70
2024/02/09 08:27:17;;;;;;;1.20;1.20;;;;;;;;;;5110307;28;20521;-70
2024/02/09 08:29:44;;;;;;;1.00;1.00;;;;;;;;;;5109912;28;20453;-70
2024/02/09 08:32:10;;;;;;;1.10;1.10;;;;;;;;;;5121075;28;20473;-70
2024/02/09 08:34:37;;;;;;;1.30;1.30;;;;;;;;;;5108318;28;20482;-69
2024/02/09 08:37:04;;;;;;;1.40;1.40;;;;;;;;;;5107360;28;20454;-71
2024/02/09 08:39:31;;;;;;;1.70;1.70;;;;;;;;;;5120939;28;21322;-72
2024/02/09 08:41:59;;;;;;;1.20;1.20;;;;;;;;;;5115659;28;20478;-71
2024/02/09 08:44:25;;;;;;;1.30;1.30;;;;;;;;;;5108548;28;20451;-70
2024/02/09 08:46:52;;;;;;;1.30;1.30;;;;;;;;;;5109018;28;20458;-70
2024/02/09 08:49:18;;;;;;;1.20;1.20;;;;;;;;;;5108093;28;20454;-70
2024/02/09 08:51:44;;;;;;;1.50;1.50;;;;;;;;;;5116003;28;20454;-69
2024/02/09 08:54:11;;;;;;;1.50;1.50;;;;;;;;;;5112638;28;20481;-69
2024/02/09 08:56:37;;;;;;;1.20;1.20;;;;;;;;;;5103105;28;20451;-68
2024/02/09 08:59:06;;;;;;;1.30;1.30;;;;;;;;;;5098086;28;20514;-71
2024/02/09 09:01:32;;;;;;;1.40;1.40;;;;;;;;;;5106038;28;20481;-70
2024/02/09 09:03:59;;;;;;;1.60;1.60;;;;;;;;;;5103461;28;20494;-69
2024/02/09 09:06:27;;;;;;;1.50;1.50;;;;;;;;;;5110467;28;20459;-67
2024/02/09 09:08:54;;;;;;;1.70;1.70;;;;;;;;;;5117999;28;21081;-70
2024/02/09 09:11:21;;;;;;;1.40;1.40;;;;;;;;;;5108958;28;20473;-73
2024/02/09 09:13:47;;;;;;;1.47;1.47;;;;;;;;;;5113586;28;20430;-72
2024/02/09 09:16:16;;;;;;;1.30;1.30;;;;;;;;;;5106718;28;21190;-74
2024/02/09 09:18:45;;;;;;;1.30;1.30;;;;;;;;;;5113228;28;20468;-72
2024/02/09 09:21:11;;;;;;;1.23;1.23;;;;;;;;;;5109937;28;20524;-71
2024/02/09 09:23:39;;;;;;;1.10;1.10;;;;;;;;;;5108029;28;20489;-70
2024/02/09 09:26:06;;;;;;;1.30;1.30;;;;;;;;;;5112804;28;20558;-72
2024/02/09 09:28:33;;;;;;;1.00;1.00;;;;;;;;;;5113902;28;20507;-70
2024/02/09 09:30:59;;;;;;;1.10;1.10;;;;;;;;;;5113640;28;20458;-73
2024/02/09 09:33:27;;;;;;;1.00;1.00;;;;;;;;;;5111934;28;20473;-73
2024/02/09 09:35:54;;;;;;;1.10;1.10;;;;;;;;;;5119191;28;20477;-69
2024/02/09 09:38:21;;;;;;;1.10;1.10;;;;;;;;;;5117166;28;20469;-71
2024/02/09 09:40:48;;;;;;;0.80;0.80;;;;;;;;;;5112089;28;20494;-69
2024/02/09 09:43:17;;;;;;;0.83;0.83;;;;;;;;;;5119381;28;20478;-68
2024/02/09 09:45:43;;;;;;;0.70;0.70;;;;;;;;;;5106043;28;20494;-68
2024/02/09 09:48:14;;;;;;;0.70;0.70;;;;;;;;;;5106396;28;20776;-69
2024/02/09 09:50:43;;;;;;;0.50;0.50;;;;;;;;;;5117190;28;20464;-67
2024/02/09 09:53:13;;;;;;;0.60;0.60;;;;;;;;;;5108952;28;20928;-68
2024/02/09 09:55:40;;;;;;;0.70;0.70;;;;;;;;;;5110395;28;20500;-69
2024/02/09 09:58:07;;;;;;;0.63;0.63;;;;;;;;;;5109695;28;20458;-68
2024/02/09 10:00:34;;;;;;;0.70;0.70;;;;;;;;;;5104939;28;20490;-64
2024/02/09 10:03:04;;;;;;;0.60;0.60;;;;;;;;;;5107659;28;20488;-67
2024/02/09 10:05:31;;;;;;;0.50;0.50;;;;;;;;;;5117668;28;20876;-71
2024/02/09 10:07:59;;;;;;;0.50;0.50;;;;;;;;;;5112549;28;20448;-70
2024/02/09 10:10:27;;;;;;;0.50;0.50;;;;;;;;;;5103343;28;20468;-68
2024/02/09 10:13:02;;;;;;;0.70;0.70;;;;;;;;;;5111024;28;20457;-69
2024/02/09 10:15:29;;;;;;;0.60;0.60;;;;;;;;;;5114838;28;20450;-68
2024/02/09 10:17:56;;;;;;;0.50;0.50;;;;;;;;;;5109387;28;20983;-71
2024/02/09 10:20:23;;;;;;;0.50;0.50;;;;;;;;;;5106937;28;20475;-68
2024/02/09 10:22:50;;;;;;;0.60;0.60;;;;;;;;;;5108408;28;20550;-68
2024/02/09 10:25:20;;;;;;;0.50;0.50;;;;;;;;;;5115921;28;20447;-69
2024/02/09 10:27:47;;;;;;;0.60;0.60;;;;;;;;;;5110746;28;20699;-70
2024/02/09 10:30:13;;;;;;;0.80;0.80;;;;;;;;;;5106103;28;20454;-70
2024/02/09 10:32:40;;;;;;;1.13;1.13;;;;;;;;;;5111299;28;20451;-71
2024/02/09 10:35:07;;;;;;;1.40;1.40;;;;;;;;;;5110991;28;20967;-70
2024/02/09 10:37:33;;;;;;;1.30;1.30;;;;;;;;;;5098860;28;20462;-69
2024/02/09 10:40:00;;;;;;;1.20;1.20;;;;;;;;;;5109827;28;20478;-69
2024/02/09 10:42:29;;;;;;;0.93;0.93;;;;;;;;;;5112153;28;20482;-65
2024/02/09 10:44:56;;;;;;;0.90;0.90;;;;;;;;;;5110087;28;20478;-67
2024/02/09 10:47:26;;;;;;;0.90;0.90;;;;;;;;;;5107344;28;20455;-69
2024/02/09 10:49:54;;;;;;;0.67;0.67;;;;;;;;;;5103764;28;20455;-71
2024/02/09 10:52:21;;;;;;;0.60;0.60;;;;;;;;;;5110290;28;20523;-66
2024/02/09 10:54:50;;;;;;;0.60;0.60;;;;;;;;;;5110249;28;20458;-68
2024/02/09 10:57:17;;;;;;;0.70;0.70;;;;;;;;;;5103453;28;20485;-71
2024/02/09 10:59:47;;;;;;;0.50;0.50;;;;;;;;;;5116955;28;20487;-68
2024/02/09 11:02:14;;;;;;;0.60;0.60;;;;;;;;;;5108551;28;20446;-70
2024/02/09 11:04:41;;;;;;;0.50;0.50;;;;;;;;;;5112189;28;20458;-68
2024/02/09 11:07:08;;;;;;;1.73;1.63;;;;;;;;;;5106912;28;20477;-71
2024/02/09 11:09:36;;;;;;;0.60;0.60;;;;;;;;;;5108876;28;20443;-72
2024/02/09 11:12:04;;;;;;;0.60;0.60;;;;;;;;;;5112816;28;20465;-71
2024/02/09 11:14:32;;;;;;;1.70;1.67;;;;;;;;;;5110724;28;20458;-68
2024/02/09 11:17:06;;;;;;;0.57;0.57;;;;;;;;;;5104475;28;20524;-66
2024/02/09 11:19:36;;;;;;;0.50;0.50;;;;;;;;;;5103828;28;20982;-76
2024/02/09 11:22:04;;;;;;;1.53;1.17;;;;;;;;;;5108560;28;20484;-70
2024/02/09 11:24:31;;;;;;;0.40;0.40;;;;;;;;;;5104845;28;20496;-69
2024/02/09 11:26:59;;;;;;;0.70;0.70;;;;;;;;;;5109818;28;20450;-67
2024/02/09 11:29:26;;;;;;;0.40;0.40;;;;;;;;;;5106411;28;20466;-65
2024/02/09 11:31:53;;;;;;;0.53;0.53;;;;;;;;;;5110235;28;20450;-71
2024/02/09 11:34:22;;;;;;;4.57;4.10;;;;;;;;;;5101416;28;21395;-70
2024/02/09 11:36:49;;;;;;;0.50;0.50;;;;;;;;;;5102913;28;20447;-69
2024/02/09 11:39:17;;;;;;;0.50;0.50;;;;;;;;;;5108299;28;20489;-69
2024/02/09 11:41:44;;;;;;;0.50;0.50;;;;;;;;;;5098719;28;20870;-71
2024/02/09 11:44:10;;;;;;;0.60;0.60;;;;;;;;;;5100901;28;20486;-70
2024/02/09 11:46:37;;;;;;;0.50;0.50;;;;;;;;;;5105874;28;20455;-68
2024/02/09 11:49:06;;;;;;;0.50;0.50;;;;;;;;;;5111978;28;20465;-67
2024/02/09 11:51:34;;;;;;;0.60;0.60;;;;;;;;;;5115614;28;20948;-66
2024/02/09 11:54:01;;;;;;;1.13;1.13;;;;;;;;;;5105723;28;20443;-69
2024/02/09 11:56:27;;;;;;;0.80;0.80;;;;;;;;;;5110998;28;20523;-72
2024/02/09 11:58:56;;;;;;;0.60;0.60;;;;;;;;;;5107901;28;20437;-68
2024/02/09 12:01:26;;;;;;;0.80;0.80;;;;;;;;;;5109297;28;20446;-66
2024/02/09 12:03:52;;;;;;;0.70;0.70;;;;;;;;;;5114083;28;20493;-67
2024/02/09 12:06:21;;;;;;;0.60;0.60;;;;;;;;;;5116313;28;20473;-70
2024/02/09 12:08:50;;;;;;;0.60;0.60;;;;;;;;;;5108230;28;20475;-67
2024/02/09 12:11:18;;;;;;;0.60;0.60;;;;;;;;;;5109727;28;20466;-68
2024/02/09 12:13:45;;;;;;;0.60;0.60;;;;;;;;;;5116240;28;20477;-66
2024/02/09 12:16:11;;;;;;;0.70;0.70;;;;;;;;;;5101463;28;20481;-67
2024/02/09 12:18:38;;;;;;;0.70;0.70;;;;;;;;;;5111159;28;20831;-68
2024/02/09 12:21:04;;;;;;;0.60;0.60;;;;;;;;;;5118171;28;20459;-67
2024/02/09 12:23:31;;;;;;;0.90;0.90;;;;;;;;;;5108583;28;20497;-69
2024/02/09 12:25:59;;;;;;;0.80;0.80;;;;;;;;;;5121946;27;20494;-69
2024/02/09 12:28:28;;;;;;;0.80;0.80;;;;;;;;;;5130289;27;20473;-68
2024/02/09 12:30:54;;;;;;;0.90;0.90;;;;;;;;;;5128943;27;20454;-67
2024/02/09 12:33:21;;;;;;;0.80;0.80;;;;;;;;;;5114859;27;21205;-63
2024/02/09 12:35:47;;;;;;;0.87;0.87;;;;;;;;;;5116855;28;20450;-63
2024/02/09 12:38:17;;;;;;;0.83;0.83;;;;;;;;;;5105242;28;20493;-63
2024/02/09 12:40:44;;;;;;;0.80;0.80;;;;;;;;;;5083395;28;20482;-62
2024/02/09 12:43:18;;;;;;;0.73;0.73;;;;;;;;;;5092464;28;20472;-59
2024/02/09 12:45:44;;;;;;;3.03;2.17;;;;;;;;;;5103131;28;20508;-58
2024/02/09 12:48:12;;;;;;;0.70;0.70;;;;;;;;;;5082720;28;20451;-61
2024/02/09 12:50:38;;;;;;;0.80;0.80;;;;;;;;;;5089733;28;20513;-64
2024/02/09 12:53:05;;;;;;;1.33;1.33;;;;;;;;;;5097539;28;20520;-62
2024/02/09 12:55:32;;;;;;;0.87;0.87;;;;;;;;;;5093013;28;20457;-62
2024/02/09 12:57:59;;;;;;;1.10;1.10;;;;;;;;;;5088913;28;21208;-62
2024/02/09 13:00:27;;;;;;;1.03;1.03;;;;;;;;;;5092086;28;20459;-58
2024/02/09 13:02:54;;;;;;;0.80;0.80;;;;;;;;;;5093016;28;20467;-61
2024/02/09 13:05:21;;;;;;;0.90;0.90;;;;;;;;;;5094750;28;20459;-57
2024/02/09 13:07:48;;;;;;;0.73;0.73;;;;;;;;;;5105230;28;20482;-62
2024/02/09 13:10:16;;;;;;;0.70;0.70;;;;;;;;;;5101532;28;21153;-60
2024/02/09 13:12:44;;;;;;;0.87;0.87;;;;;;;;;;5088778;28;20480;-59
2024/02/09 13:15:11;;;;;;;0.80;0.80;;;;;;;;;;5091389;28;20976;-61
2024/02/09 13:17:39;;;;;;;1.00;1.00;;;;;;;;;;5101321;28;20459;-60
2024/02/09 13:20:08;;;;;;;0.83;0.83;;;;;;;;;;5089916;28;20486;-62
2024/02/09 13:22:37;;;;;;;0.90;0.90;;;;;;;;;;5095515;28;20443;-61
2024/02/09 13:25:03;;;;;;;0.90;0.90;;;;;;;;;;5091135;28;20961;-64
2024/02/09 13:27:31;;;;;;;0.80;0.80;;;;;;;;;;5085877;28;20952;-61
2024/02/09 13:29:58;;;;;;;0.80;0.80;;;;;;;;;;5091901;28;20494;-60
2024/02/09 13:32:24;;;;;;;0.80;0.80;;;;;;;;;;5108675;28;20515;-61
2024/02/09 13:34:52;;;;;;;0.90;0.90;;;;;;;;;;5087876;28;20863;-61
2024/02/09 13:37:20;;;;;;;0.90;0.90;;;;;;;;;;5102845;28;20994;-61
2024/02/09 13:39:47;;;;;;;0.60;0.60;;;;;;;;;;5093292;28;20519;-61
2024/02/09 13:42:14;;;;;;;0.70;0.70;;;;;;;;;;5108408;28;20509;-62
2024/02/09 13:44:40;;;;;;;0.80;0.80;;;;;;;;;;5103922;28;20514;-60
2024/02/09 13:47:07;;;;;;;0.87;0.87;;;;;;;;;;5101973;28;20480;-60
2024/02/09 13:49:34;;;;;;;0.60;0.60;;;;;;;;;;5108545;27;20459;-62
2024/02/09 13:52:03;;;;;;;0.60;0.60;;;;;;;;;;5110392;28;20455;-60
2024/02/09 13:54:31;;;;;;;0.90;0.90;;;;;;;;;;5102311;28;20539;-62
2024/02/09 13:56:58;;;;;;;0.80;0.80;;;;;;;;;;5107006;28;20461;-58
2024/02/09 13:59:27;;;;;;;0.70;0.70;;;;;;;;;;5097938;28;20458;-60
2024/02/09 14:01:53;;;;;;;0.70;0.70;;;;;;;;;;5099968;28;20448;-61
2024/02/09 14:04:21;;;;;;;0.70;0.70;;;;;;;;;;5094925;28;20514;-59
2024/02/09 14:06:48;;;;;;;0.80;0.80;;;;;;;;;;5099710;28;20454;-58
2024/02/09 14:09:16;;;;;;;0.77;0.77;;;;;;;;;;5094929;28;20453;-61
2024/02/09 14:11:44;;;;;;;0.80;0.80;;;;;;;;;;5101268;28;20538;-59
2024/02/09 14:14:10;;;;;;;0.70;0.70;;;;;;;;;;5097903;28;20488;-57
2024/02/09 14:16:36;;;;;;;0.90;0.90;;;;;;;;;;5094944;28;20463;-61
2024/02/09 14:19:04;;;;;;;0.90;0.90;;;;;;;;;;5099968;28;20487;-58
2024/02/09 14:21:31;;;;;;;0.70;0.70;;;;;;;;;;5101944;28;20520;-64
2024/02/09 14:23:57;;;;;;;0.90;0.90;;;;;;;;;;5098494;28;20606;-68
2024/02/09 14:26:25;;;;;;;1.00;1.00;;;;;;;;;;5100771;28;20455;-68
2024/02/09 14:28:54;;;;;;;10.33;4.63;;;;;;;;;;5106287;28;20707;-69
2024/02/09 14:31:21;;;;;;;0.90;0.90;;;;;;;;;;5101741;28;20462;-68
2024/02/09 14:33:47;;;;;;;0.80;0.80;;;;;;;;;;5098186;28;20459;-75
2024/02/09 14:36:16;;;;;;;0.80;0.80;;;;;;;;;;5092183;28;20483;-67
2024/02/09 14:38:43;;;;;;;1.00;1.00;;;;;;;;;;5094775;28;20479;-67
2024/02/09 14:41:10;;;;;;;1.00;1.00;;;;;;;;;;5109937;28;20485;-70
2024/02/09 14:43:38;;;;;;;0.80;0.80;;;;;;;;;;5103084;28;20470;-66
2024/02/09 14:46:05;;;;;;;1.03;1.03;;;;;;;;;;5092651;28;20457;-67
2024/02/09 14:48:31;;;;;;;0.90;0.90;;;;;;;;;;5087533;28;20530;-65
2024/02/09 14:51:01;;;;;;;1.07;1.07;;;;;;;;;;5090160;28;20513;-64
2024/02/09 14:53:28;;;;;;;0.90;0.90;;;;;;;;;;5100684;28;20999;-67
2024/02/09 14:55:55;;;;;;;1.93;1.87;;;;;;;;;;5098509;28;20482;-66
2024/02/09 14:58:24;;;;;;;1.10;1.10;;;;;;;;;;5090201;28;20450;-69
2024/02/09 15:00:58;;;;;;;2.43;2.33;;;;;;;;;;5098653;28;20459;-69
2024/02/09 15:03:25;;;;;;;0.90;0.90;;;;;;;;;;5097516;28;21041;-67
2024/02/09 15:05:51;;;;;;;1.13;1.13;;;;;;;;;;5088973;28;20455;-65
2024/02/09 15:08:18;;;;;;;0.90;0.90;;;;;;;;;;5098186;28;20483;-66
2024/02/09 15:10:44;;;;;;;1.00;1.00;;;;;;;;;;5104810;28;20492;-66
2024/02/09 15:13:13;;;;;;;0.90;0.90;;;;;;;;;;5098285;28;20463;-68
2024/02/09 15:15:42;;;;;;;1.00;1.00;;;;;;;;;;5098961;28;20439;-68
2024/02/09 15:18:10;;;;;;;1.00;1.00;;;;;;;;;;5096250;28;20517;-62
2024/02/09 15:20:37;;;;;;;1.20;1.20;;;;;;;;;;5090209;28;20478;-68
2024/02/09 15:23:04;;;;;;;1.30;1.30;;;;;;;;;;5097558;28;20446;-67
2024/02/09 15:25:32;;;;;;;1.10;1.10;;;;;;;;;;5088978;28;20566;-67
2024/02/09 15:28:00;;;;;;;1.10;1.10;;;;;;;;;;5093972;28;20471;-69
2024/02/09 15:30:26;;;;;;;1.30;1.30;;;;;;;;;;5095290;28;20458;-63
2024/02/09 15:32:53;;;;;;;1.10;1.10;;;;;;;;;;5081984;28;20487;-66
2024/02/09 15:35:21;;;;;;;2.00;1.93;;;;;;;;;;5089220;28;20542;-66
2024/02/09 15:37:47;;;;;;;1.13;1.13;;;;;;;;;;5089612;28;20498;-65
2024/02/09 15:40:14;;;;;;;2.53;2.40;;;;;;;;;;5099932;28;20514;-67
2024/02/09 15:42:42;;;;;;;1.10;1.10;;;;;;;;;;5093449;28;20459;-65
2024/02/09 15:45:11;;;;;;;0.80;0.80;;;;;;;;;;5097284;28;20478;-68
2024/02/09 15:47:38;;;;;;;0.90;0.90;;;;;;;;;;5091743;28;20720;-69
2024/02/09 15:50:05;;;;;;;0.80;0.80;;;;;;;;;;5080761;28;20470;-64
2024/02/09 15:52:32;;;;;;;0.90;0.90;;;;;;;;;;5092704;28;20496;-70
2024/02/09 15:54:59;;;;;;;1.10;1.10;;;;;;;;;;5089933;28;20483;-66
2024/02/09 15:57:26;;;;;;;0.90;0.90;;;;;;;;;;5090132;28;20517;-66
2024/02/09 15:59:53;;;;;;;1.00;1.00;;;;;;;;;;5096529;28;20450;-68
2024/02/09 16:02:20;;;;;;;0.90;0.90;;;;;;;;;;5093722;28;20447;-70
2024/02/09 16:04:48;;;;;;;0.77;0.77;;;;;;;;;;5082256;28;20519;-69
2024/02/09 16:07:14;;;;;;;1.00;1.00;;;;;;;;;;5104329;28;20960;-65
2024/02/09 16:09:45;;;;;;;0.80;0.80;;;;;;;;;;5083254;28;20459;-68
2024/02/09 16:12:12;;;;;;;1.50;1.50;;;;;;;;;;5093160;28;20454;-65
2024/02/09 16:14:38;;;;;;;0.80;0.80;;;;;;;;;;5086145;28;20443;-69
2024/02/09 16:17:06;;;;;;;0.80;0.80;;;;;;;;;;5088536;28;20458;-69
2024/02/09 16:19:33;;;;;;;0.80;0.80;;;;;;;;;;5094673;28;20455;-68
2024/02/09 16:22:00;;;;;;;1.00;1.00;;;;;;;;;;5087871;28;20728;-68
2024/02/09 16:24:26;;;;;;;0.90;0.90;;;;;;;;;;5094395;28;20471;-67
2024/02/09 16:26:54;;;;;;;0.70;0.70;;;;;;;;;;5096033;28;20447;-68
2024/02/09 16:29:21;;;;;;;1.00;1.00;;;;;;;;;;5078586;28;20444;-65
2024/02/09 16:31:48;;;;;;;0.80;0.80;;;;;;;;;;5079461;28;20460;-65
2024/02/09 16:34:14;;;;;;;0.90;0.90;;;;;;;;;;5082000;28;20455;-68